createdAt,value
2023-03-21T00:01:52.200Z,8.81
2023-03-21T00:04:20.329Z,8.78
2023-03-21T00:06:48.957Z,8.68
2023-03-21T00:09:17.364Z,8.78
2023-03-21T00:11:47.351Z,8.80
2023-03-21T00:14:20.720Z,8.74
2023-03-21T00:16:50.846Z,8.74
2023-03-21T00:19:21.383Z,8.74
2023-03-21T00:22:08.838Z,8.74
2023-03-21T00:24:38.542Z,8.80
2023-03-21T00:27:34.533Z,8.84
2023-03-21T00:29:57.522Z,8.89
2023-03-21T00:32:25.768Z,8.85
2023-03-21T00:35:11.963Z,8.80
2023-03-21T00:37:43.689Z,8.75
2023-03-21T00:40:27.843Z,8.73
2023-03-21T00:43:01.311Z,8.75
2023-03-21T00:45:29.236Z,8.73
2023-03-21T00:47:57.773Z,8.74
2023-03-21T00:50:27.222Z,8.70
2023-03-21T00:52:56.884Z,8.59
2023-03-21T00:55:26.709Z,8.57
2023-03-21T00:58:02.218Z,8.57
2023-03-21T01:00:33.869Z,8.47
2023-03-21T01:03:21.414Z,8.33
2023-03-21T01:06:05.457Z,8.47
2023-03-21T01:08:50.998Z,8.42
2023-03-21T01:11:22.614Z,8.29
2023-03-21T01:13:56.090Z,8.28
2023-03-21T01:16:29.546Z,8.28
2023-03-21T01:18:58.828Z,8.32
2023-03-21T01:21:26.879Z,8.26
2023-03-21T01:23:54.951Z,8.38
2023-03-21T01:26:23.782Z,8.32
2023-03-21T01:28:51.820Z,8.42
2023-03-21T01:31:19.828Z,8.43
2023-03-21T01:33:50.281Z,8.43
2023-03-21T01:36:22.392Z,8.47
2023-03-21T01:38:53.428Z,8.46
2023-03-21T01:41:33.432Z,8.56
2023-03-21T01:44:07.024Z,8.50
2023-03-21T01:46:53.983Z,8.53
2023-03-21T01:49:48.495Z,8.53
2023-03-21T01:52:37.475Z,8.63
2023-03-21T01:55:17.654Z,8.63
2023-03-21T01:58:05.781Z,8.67
2023-03-21T02:00:45.698Z,8.52
2023-03-21T02:03:36.142Z,8.49
2023-03-21T02:06:37.089Z,8.49
2023-03-21T02:09:29.894Z,8.53
2023-03-21T02:11:58.946Z,8.49
2023-03-21T02:14:32.861Z,8.53
2023-03-21T02:17:16.450Z,8.49
2023-03-21T02:20:22.986Z,8.47
2023-03-21T02:23:38.524Z,8.47
2023-03-21T02:26:33.370Z,8.46
2023-03-21T02:29:24.901Z,8.46
2023-03-21T02:32:15.156Z,8.45
2023-03-21T02:35:15.567Z,8.52
2023-03-21T02:37:55.177Z,8.42
2023-03-21T02:40:35.723Z,8.35
2023-03-21T02:43:22.188Z,8.38
2023-03-21T02:45:56.653Z,8.38
2023-03-21T02:48:44.455Z,8.36
2023-03-21T02:51:22.009Z,8.33
2023-03-21T02:54:21.339Z,8.35
2023-03-21T02:56:46.139Z,8.36
2023-03-21T02:59:16.748Z,8.31
2023-03-21T03:01:45.550Z,8.35
2023-03-21T03:04:23.018Z,8.39
2023-03-21T03:07:14.357Z,8.33
2023-03-21T03:09:59.050Z,8.38
2023-03-21T03:12:35.849Z,8.39
2023-03-21T03:15:18.307Z,8.35
2023-03-21T03:17:53.044Z,8.42
2023-03-21T03:20:28.663Z,8.38
2023-03-21T03:23:06.263Z,8.38
2023-03-21T03:25:44.392Z,8.47
2023-03-21T03:28:21.378Z,8.39
2023-03-21T03:31:07.479Z,8.35
2023-03-21T03:33:45.440Z,8.35
2023-03-21T03:36:33.654Z,8.38
2023-03-21T03:39:10.364Z,8.38
2023-03-21T03:42:07.951Z,8.39
2023-03-21T03:44:41.085Z,8.40
2023-03-21T03:47:22.888Z,8.53
2023-03-21T03:50:04.864Z,8.57
2023-03-21T03:52:50.022Z,8.60
2023-03-21T03:55:26.551Z,8.64
2023-03-21T03:57:58.854Z,8.64
2023-03-21T04:00:27.422Z,8.70
2023-03-21T04:02:55.457Z,8.64
2023-03-21T04:05:25.591Z,8.63
2023-03-21T04:07:54.630Z,8.67
2023-03-21T04:10:31.522Z,8.63
2023-03-21T04:13:00.996Z,8.66
2023-03-21T04:15:56.549Z,8.61
2023-03-21T04:18:24.632Z,8.56
2023-03-21T04:20:53.376Z,8.57
2023-03-21T04:23:22.213Z,8.61
2023-03-21T04:25:56.836Z,8.59
2023-03-21T04:28:38.876Z,8.67
2023-03-21T04:31:42.486Z,8.64
2023-03-21T04:34:14.184Z,8.66
2023-03-21T04:36:47.770Z,8.68
2023-03-21T04:39:18.439Z,8.78
2023-03-21T04:41:49.842Z,8.81
2023-03-21T04:44:20.101Z,8.78
2023-03-21T04:46:47.920Z,8.75
2023-03-21T04:49:16.003Z,8.83
2023-03-21T04:51:45.900Z,8.77
2023-03-21T04:54:19.038Z,8.83
2023-03-21T04:56:47.879Z,8.78
2023-03-21T04:59:16.916Z,8.88
2023-03-21T05:01:47.857Z,8.95
2023-03-21T05:04:15.991Z,9.01
2023-03-21T05:06:44.962Z,9.08
2023-03-21T05:09:15.178Z,9.11
2023-03-21T05:11:44.086Z,9.09
2023-03-21T05:14:18.449Z,9.12
2023-03-21T05:16:53.305Z,9.15
2023-03-21T05:19:26.808Z,9.14
2023-03-21T05:21:56.660Z,9.08
2023-03-21T05:24:28.384Z,9.14
2023-03-21T05:27:02.071Z,9.16
2023-03-21T05:29:34.896Z,9.08
2023-03-21T05:32:07.629Z,9.08
2023-03-21T05:34:36.847Z,9.07
2023-03-21T05:37:05.600Z,9.04
2023-03-21T05:39:48.046Z,9.00
2023-03-21T05:42:24.442Z,9.12
2023-03-21T05:44:54.157Z,9.23
2023-03-21T05:47:28.847Z,9.18
2023-03-21T05:50:00.863Z,9.25
2023-03-21T05:52:29.710Z,9.32
2023-03-21T05:54:58.704Z,9.43
2023-03-21T05:57:29.483Z,9.44
2023-03-21T06:00:04.366Z,9.43
2023-03-21T06:02:45.069Z,9.48
2023-03-21T06:05:39.398Z,9.61
2023-03-21T06:08:13.826Z,9.65
2023-03-21T06:10:42.417Z,9.70
2023-03-21T06:13:10.557Z,9.77
2023-03-21T06:15:40.062Z,9.75
2023-03-21T06:18:16.538Z,9.69
2023-03-21T06:20:57.909Z,9.71
2023-03-21T06:23:26.024Z,9.74
2023-03-21T06:25:54.479Z,9.77
2023-03-21T06:28:27.305Z,9.87
2023-03-21T06:30:56.306Z,9.87
2023-03-21T06:33:30.035Z,10.01
2023-03-21T06:36:00.353Z,9.97
2023-03-21T06:38:29.967Z,10.09
2023-03-21T06:40:59.139Z,9.97
2023-03-21T06:43:31.811Z,9.84
2023-03-21T06:46:03.825Z,9.82
2023-03-21T06:48:33.522Z,9.92
2023-03-21T06:51:01.756Z,9.99
2023-03-21T06:53:35.687Z,10.09
2023-03-21T06:56:16.420Z,10.10
2023-03-21T06:58:46.688Z,10.08
2023-03-21T07:01:37.817Z,10.37
2023-03-21T07:04:10.704Z,10.23
2023-03-21T07:06:38.982Z,10.23
2023-03-21T07:09:07.897Z,10.08
2023-03-21T07:11:38.842Z,10.49
2023-03-21T07:14:07.648Z,10.30
2023-03-21T07:16:35.734Z,10.32
2023-03-21T07:19:04.658Z,10.32
2023-03-21T07:21:34.233Z,10.39
2023-03-21T07:24:02.650Z,10.43
2023-03-21T07:26:31.070Z,10.50
2023-03-21T07:28:59.969Z,10.41
2023-03-21T07:31:28.608Z,10.56
2023-03-21T07:33:57.361Z,10.71
2023-03-21T07:36:26.476Z,11.15
2023-03-21T07:38:55.761Z,10.96
2023-03-21T07:41:26.184Z,11.16
2023-03-21T07:43:54.258Z,11.12
2023-03-21T07:46:22.707Z,11.20
2023-03-21T07:48:50.919Z,11.08
2023-03-21T07:51:20.911Z,10.92
2023-03-21T07:53:49.463Z,10.56
2023-03-21T07:56:19.205Z,10.71
2023-03-21T07:58:47.614Z,10.65
2023-03-21T08:01:15.685Z,10.53
2023-03-21T08:03:44.658Z,10.49
2023-03-21T08:06:12.835Z,10.64
2023-03-21T08:08:41.366Z,10.98
2023-03-21T08:11:10.156Z,10.65
2023-03-21T08:13:39.586Z,10.74
2023-03-21T08:16:08.938Z,10.94
2023-03-21T08:18:37.967Z,10.57
2023-03-21T08:21:07.744Z,10.32
2023-03-21T08:23:37.677Z,10.10
2023-03-21T08:26:06.311Z,10.26
2023-03-21T08:28:34.725Z,10.25
2023-03-21T08:31:08.922Z,10.12
2023-03-21T08:33:37.985Z,10.36
2023-03-21T08:36:07.774Z,10.40
2023-03-21T08:38:35.962Z,10.20
2023-03-21T08:41:07.809Z,10.12
2023-03-21T08:43:36.014Z,10.08
2023-03-21T08:46:06.001Z,10.08
2023-03-21T08:48:35.661Z,10.17
2023-03-21T08:51:04.151Z,10.23
2023-03-21T08:53:32.075Z,10.30
2023-03-21T08:56:00.745Z,10.40
2023-03-21T08:58:31.094Z,10.25
2023-03-21T09:00:59.448Z,10.19
2023-03-21T09:03:30.364Z,9.98
2023-03-21T09:05:59.686Z,9.95
2023-03-21T09:08:27.591Z,10.03
2023-03-21T09:10:56.239Z,10.12
2023-03-21T09:13:25.669Z,10.19
2023-03-21T09:15:54.200Z,10.08
2023-03-21T09:18:39.059Z,9.95
2023-03-21T09:21:14.738Z,10.12
2023-03-21T09:23:45.298Z,9.91
2023-03-21T09:26:13.697Z,9.78
2023-03-21T09:28:43.564Z,9.92
2023-03-21T09:31:12.377Z,10.03
2023-03-21T09:33:41.702Z,10.17
2023-03-21T09:36:14.685Z,10.19
2023-03-21T09:38:45.607Z,9.85
2023-03-21T09:41:38.164Z,10.33
2023-03-21T09:44:24.770Z,10.49
2023-03-21T09:46:57.994Z,10.84
2023-03-21T09:49:31.141Z,10.69
2023-03-21T09:52:06.173Z,10.72
2023-03-21T09:54:38.580Z,10.37
2023-03-21T09:57:16.026Z,10.51
2023-03-21T09:59:44.991Z,10.75
2023-03-21T10:02:32.647Z,10.77
2023-03-21T10:05:01.093Z,10.71
2023-03-21T10:07:37.674Z,10.68
2023-03-21T10:10:07.434Z,10.25
2023-03-21T10:12:36.034Z,10.33
2023-03-21T10:15:05.979Z,10.41
2023-03-21T10:17:41.480Z,10.61
2023-03-21T10:20:16.836Z,10.68
2023-03-21T10:22:47.841Z,10.64
2023-03-21T10:25:18.383Z,10.82
2023-03-21T10:27:48.086Z,10.95
2023-03-21T10:30:26.448Z,11.12
2023-03-21T10:32:59.688Z,11.37
2023-03-21T10:35:28.664Z,11.05
2023-03-21T10:37:57.986Z,10.54
2023-03-21T10:40:26.195Z,10.65
2023-03-21T10:42:57.354Z,10.72
2023-03-21T10:45:25.941Z,10.71
2023-03-21T10:47:55.520Z,11.08
2023-03-21T10:50:31.006Z,10.85
2023-03-21T10:53:01.438Z,10.81
2023-03-21T10:55:32.881Z,10.75
2023-03-21T10:58:03.847Z,11.05
2023-03-21T11:00:38.613Z,11.22
2023-03-21T11:03:06.951Z,11.40
2023-03-21T11:05:37.983Z,11.43
2023-03-21T11:08:13.974Z,11.33
2023-03-21T11:10:53.721Z,10.89
2023-03-21T11:13:27.410Z,11.30
2023-03-21T11:15:59.392Z,11.15
2023-03-21T11:18:31.530Z,10.99
2023-03-21T11:21:04.790Z,10.63
2023-03-21T11:23:39.955Z,10.96
2023-03-21T11:26:12.307Z,10.77
2023-03-21T11:28:46.286Z,10.81
2023-03-21T11:31:14.762Z,11.09
2023-03-21T11:33:54.009Z,11.38
2023-03-21T11:36:39.145Z,10.92
2023-03-21T11:39:32.371Z,10.96
2023-03-21T11:42:00.694Z,11.20
2023-03-21T11:44:32.821Z,11.30
2023-03-21T11:47:01.206Z,11.06
2023-03-21T11:49:29.656Z,11.13
2023-03-21T11:52:07.490Z,11.20
2023-03-21T11:54:50.686Z,11.06
2023-03-21T11:57:30.067Z,11.02
2023-03-21T12:00:10.777Z,11.08
2023-03-21T12:03:06.136Z,10.86
2023-03-21T12:05:37.670Z,10.95
2023-03-21T12:08:16.521Z,11.03
2023-03-21T12:10:57.740Z,11.20
2023-03-21T12:13:45.875Z,10.95
2023-03-21T12:16:27.934Z,11.01
2023-03-21T12:19:16.953Z,10.92
2023-03-21T12:21:55.832Z,11.20
2023-03-21T12:24:26.215Z,11.27
2023-03-21T12:27:03.610Z,11.31
2023-03-21T12:29:56.990Z,11.46
2023-03-21T12:32:43.350Z,11.15
2023-03-21T12:35:28.902Z,11.12
2023-03-21T12:38:08.217Z,11.08
2023-03-21T12:40:45.777Z,11.19
2023-03-21T12:43:31.187Z,10.99
2023-03-21T12:46:02.463Z,11.09
2023-03-21T12:48:41.080Z,11.05
2023-03-21T12:51:15.443Z,11.03
2023-03-21T12:53:53.555Z,11.02
2023-03-21T12:56:26.532Z,11.24
2023-03-21T12:59:02.131Z,11.13
2023-03-21T13:01:31.555Z,11.38
2023-03-21T13:04:09.031Z,11.23
2023-03-21T13:06:39.065Z,11.36
2023-03-21T13:09:18.079Z,11.47
2023-03-21T13:11:49.457Z,11.41
2023-03-21T13:14:25.362Z,11.48
2023-03-21T13:17:00.948Z,11.70
2023-03-21T13:19:35.528Z,11.65
2023-03-21T13:22:10.008Z,12.05
2023-03-21T13:24:44.069Z,12.47
2023-03-21T13:27:34.126Z,12.43
2023-03-21T13:30:07.498Z,12.26
2023-03-21T13:32:39.113Z,12.43
2023-03-21T13:35:17.215Z,12.44
2023-03-21T13:37:52.714Z,11.95
2023-03-21T13:40:24.517Z,12.09
2023-03-21T13:42:54.597Z,12.10
2023-03-21T13:45:32.414Z,11.93
2023-03-21T13:48:04.338Z,12.36
2023-03-21T13:50:51.295Z,12.29
2023-03-21T13:53:32.548Z,12.22
2023-03-21T13:56:23.476Z,11.92
2023-03-21T13:58:54.457Z,11.98
2023-03-21T14:01:37.139Z,12.20
2023-03-21T14:04:12.327Z,12.23
2023-03-21T14:06:46.448Z,12.33
2023-03-21T14:09:22.542Z,12.60
2023-03-21T14:11:54.703Z,12.43
2023-03-21T14:14:28.361Z,12.40
2023-03-21T14:16:58.597Z,12.24
2023-03-21T14:19:31.066Z,12.45
2023-03-21T14:22:00.211Z,12.24
2023-03-21T14:24:28.164Z,12.50
2023-03-21T14:26:57.034Z,12.38
2023-03-21T14:29:28.020Z,12.36
2023-03-21T14:31:56.801Z,12.36
2023-03-21T14:34:30.204Z,12.26
2023-03-21T14:36:59.619Z,12.23
2023-03-21T14:39:30.822Z,12.41
2023-03-21T14:42:04.683Z,12.22
2023-03-21T14:44:52.891Z,12.16
2023-03-21T14:47:24.602Z,12.20
2023-03-21T14:49:55.282Z,11.95
2023-03-21T14:52:26.000Z,11.95
2023-03-21T14:54:56.346Z,12.08
2023-03-21T14:57:26.139Z,11.92
2023-03-21T14:59:57.884Z,11.98
2023-03-21T15:02:29.507Z,11.99
2023-03-21T15:05:06.478Z,11.89
2023-03-21T15:07:36.580Z,11.88
2023-03-21T15:10:09.063Z,11.88
2023-03-21T15:12:37.054Z,12.12
2023-03-21T15:15:05.893Z,11.93
2023-03-21T15:17:34.497Z,11.85
2023-03-21T15:20:05.720Z,11.83
2023-03-21T15:22:37.959Z,11.93
2023-03-21T15:25:08.923Z,11.93
2023-03-21T15:27:42.043Z,11.93
2023-03-21T15:30:20.692Z,11.81
2023-03-21T15:32:49.756Z,11.85
2023-03-21T15:35:22.740Z,11.81
2023-03-21T15:37:57.185Z,11.78
2023-03-21T15:40:28.321Z,11.75
2023-03-21T15:43:07.864Z,11.67
2023-03-21T15:45:46.767Z,11.70
2023-03-21T15:48:16.419Z,11.77
2023-03-21T15:50:51.954Z,11.71
2023-03-21T15:53:22.788Z,11.77
2023-03-21T15:55:53.057Z,11.51
2023-03-21T15:58:24.781Z,11.46
2023-03-21T16:00:55.594Z,11.51
2023-03-21T16:03:27.866Z,11.38
2023-03-21T16:06:20.823Z,11.31
2023-03-21T16:08:51.507Z,11.54
2023-03-21T16:11:24.627Z,11.31
2023-03-21T16:13:54.656Z,11.33
2023-03-21T16:16:25.465Z,11.30
2023-03-21T16:18:54.058Z,11.31
2023-03-21T16:21:27.525Z,11.48
2023-03-21T16:23:56.348Z,11.27
2023-03-21T16:26:26.572Z,11.54
2023-03-21T16:28:55.390Z,11.57
2023-03-21T16:31:25.373Z,11.72
2023-03-21T16:33:54.113Z,11.58
2023-03-21T16:36:27.624Z,11.38
2023-03-21T16:38:57.152Z,11.88
2023-03-21T16:41:26.440Z,12.60
2023-03-21T16:43:55.438Z,12.48
2023-03-21T16:46:25.536Z,13.43
2023-03-21T16:48:56.827Z,13.10
2023-03-21T16:51:30.306Z,13.61
2023-03-21T16:53:59.403Z,12.60
2023-03-21T16:56:28.855Z,11.86
2023-03-21T16:58:57.790Z,11.60
2023-03-21T17:01:28.019Z,11.37
2023-03-21T17:03:56.037Z,11.27
2023-03-21T17:06:49.864Z,11.38
2023-03-21T17:09:19.800Z,11.30
2023-03-21T17:11:49.937Z,11.23
2023-03-21T17:14:18.737Z,11.19
2023-03-21T17:16:49.182Z,11.19
2023-03-21T17:19:19.584Z,11.13
2023-03-21T17:21:48.948Z,11.05
2023-03-21T17:24:17.412Z,11.13
2023-03-21T17:26:45.950Z,11.03
2023-03-21T17:29:15.661Z,11.03
2023-03-21T17:31:47.703Z,10.92
2023-03-21T17:34:15.864Z,10.91
2023-03-21T17:36:46.245Z,10.86
2023-03-21T17:39:21.104Z,10.85
2023-03-21T17:41:49.732Z,10.79
2023-03-21T17:44:17.766Z,10.74
2023-03-21T17:46:46.981Z,10.69
2023-03-21T17:49:16.961Z,10.71
2023-03-21T17:51:47.412Z,10.71
2023-03-21T17:54:16.707Z,10.77
2023-03-21T17:56:45.239Z,10.79
2023-03-21T17:59:15.364Z,10.75
2023-03-21T18:01:43.870Z,10.78
2023-03-21T18:04:12.198Z,10.81
2023-03-21T18:06:41.208Z,10.78
2023-03-21T18:09:11.737Z,10.81
2023-03-21T18:11:42.753Z,10.75
2023-03-21T18:14:17.194Z,10.78
2023-03-21T18:16:47.412Z,10.74
2023-03-21T18:19:15.471Z,10.86
2023-03-21T18:21:45.241Z,10.84
2023-03-21T18:24:15.214Z,10.81
2023-03-21T18:26:46.110Z,10.84
2023-03-21T18:32:08.084Z,10.89
2023-03-21T18:34:39.085Z,10.88
2023-03-21T18:37:08.038Z,10.92
2023-03-21T18:39:37.935Z,10.86
2023-03-21T18:42:16.779Z,10.81
2023-03-21T18:44:47.900Z,10.85
2023-03-21T18:47:16.807Z,10.82
2023-03-21T18:52:33.220Z,10.86
2023-03-21T18:55:01.160Z,10.82
2023-03-21T18:57:38.983Z,10.81
2023-03-21T19:00:12.708Z,10.77
2023-03-21T19:02:46.447Z,10.84
2023-03-21T19:05:17.154Z,10.81
2023-03-21T19:07:45.588Z,10.88
2023-03-21T19:10:19.396Z,10.84
2023-03-21T19:12:52.528Z,10.85
2023-03-21T19:15:22.113Z,10.84
2023-03-21T19:18:34.441Z,10.82
2023-03-21T19:20:44.556Z,10.84
2023-03-21T19:23:13.845Z,10.85
2023-03-21T19:25:42.792Z,10.86
2023-03-21T19:28:12.632Z,10.95
2023-03-21T19:30:48.997Z,10.86
2023-03-21T19:33:18.581Z,10.88
2023-03-21T19:35:46.786Z,10.85
2023-03-21T19:38:14.976Z,10.88
2023-03-21T19:40:44.138Z,10.77
2023-03-21T19:43:32.328Z,10.72
2023-03-21T19:46:02.081Z,10.61
2023-03-21T19:48:30.812Z,10.50
2023-03-21T19:51:26.729Z,10.46
2023-03-21T19:53:50.421Z,10.41
2023-03-21T19:56:23.061Z,10.33
2023-03-21T19:58:54.993Z,10.37
2023-03-21T20:01:25.305Z,10.43
2023-03-21T20:03:53.573Z,10.41
2023-03-21T20:06:24.423Z,10.36
2023-03-21T20:11:42.008Z,10.29
2023-03-21T20:14:11.349Z,10.20
2023-03-21T20:16:43.255Z,10.20
2023-03-21T20:19:16.731Z,10.25
2023-03-21T20:21:52.807Z,10.22
2023-03-21T20:24:25.526Z,10.20
2023-03-21T20:26:54.995Z,10.26
2023-03-21T20:32:13.775Z,10.32
2023-03-21T20:34:44.265Z,10.37
2023-03-21T20:37:14.167Z,10.44
2023-03-21T20:39:42.600Z,10.43
2023-03-21T20:42:11.567Z,10.41
2023-03-21T20:44:57.220Z,10.20
2023-03-21T20:47:26.750Z,10.16
2023-03-21T20:49:56.973Z,10.15
2023-03-21T20:52:57.785Z,10.10
2023-03-21T20:55:16.619Z,10.09
2023-03-21T20:57:45.113Z,10.09
2023-03-21T21:00:17.920Z,10.12
2023-03-21T21:02:48.189Z,10.19
2023-03-21T21:05:27.473Z,10.23
2023-03-21T21:07:56.972Z,10.20
2023-03-21T21:10:26.110Z,10.10
2023-03-21T21:12:54.233Z,10.15
2023-03-21T21:15:23.925Z,10.19
2023-03-21T21:18:07.105Z,10.19
2023-03-21T21:20:36.405Z,10.19
2023-03-21T21:23:06.005Z,10.25
2023-03-21T21:25:35.408Z,10.23
2023-03-21T21:28:09.676Z,10.19
2023-03-21T21:30:41.631Z,10.23
2023-03-21T21:33:10.970Z,10.25
2023-03-21T21:35:39.508Z,10.26
2023-03-21T21:38:08.061Z,10.26
2023-03-21T21:40:37.033Z,10.19
2023-03-21T21:43:05.431Z,10.17
2023-03-21T21:45:33.554Z,10.09
2023-03-21T21:48:03.850Z,10.05
2023-03-21T21:50:31.800Z,9.98
2023-03-21T21:53:04.266Z,9.94
2023-03-21T21:55:34.946Z,9.92
2023-03-21T21:58:04.454Z,9.98
2023-03-21T22:00:34.163Z,9.95
2023-03-21T22:03:04.564Z,10.03
2023-03-21T22:05:33.188Z,10.02
2023-03-21T22:08:01.216Z,10.06
2023-03-21T22:10:32.811Z,10.09
2023-03-21T22:13:01.862Z,10.15
2023-03-21T22:15:29.827Z,10.13
2023-03-21T22:17:57.881Z,10.15
2023-03-21T22:20:27.743Z,10.13
2023-03-21T22:22:57.206Z,10.06
2023-03-21T22:25:25.714Z,10.06
2023-03-21T22:27:54.946Z,10.06
2023-03-21T22:30:22.975Z,10.05
2023-03-21T22:33:06.340Z,10.01
2023-03-21T22:35:39.291Z,9.95
2023-03-21T22:38:07.305Z,10.02
2023-03-21T22:40:35.861Z,9.99
2023-03-21T22:43:04.564Z,10.05
2023-03-21T22:45:34.856Z,10.02
2023-03-21T22:48:03.662Z,9.98
2023-03-21T22:50:32.221Z,9.94
2023-03-21T22:53:21.568Z,9.95
2023-03-21T22:55:50.421Z,9.95
2023-03-21T22:58:18.527Z,9.98
2023-03-21T23:00:47.383Z,10.03
2023-03-21T23:03:17.132Z,10.12
2023-03-21T23:05:46.129Z,10.20
2023-03-21T23:08:14.439Z,10.15
2023-03-21T23:10:46.467Z,10.16
2023-03-21T23:13:14.502Z,10.17
2023-03-21T23:15:43.043Z,10.20
2023-03-21T23:18:13.288Z,10.22
2023-03-21T23:20:41.928Z,10.29
2023-03-21T23:23:10.803Z,10.28
2023-03-21T23:25:42.427Z,10.33
2023-03-21T23:28:11.982Z,10.26
2023-03-21T23:30:41.900Z,10.19
2023-03-21T23:33:12.413Z,10.13
2023-03-21T23:35:40.418Z,10.13
2023-03-21T23:38:09.971Z,10.20
2023-03-21T23:40:39.731Z,10.22
2023-03-21T23:43:08.343Z,10.26
2023-03-21T23:45:38.086Z,10.30
2023-03-21T23:48:07.458Z,10.34
2023-03-21T23:50:35.453Z,10.36
2023-03-21T23:53:04.363Z,10.36
2023-03-21T23:55:32.303Z,10.34
2023-03-21T23:58:00.733Z,10.43
